»·PEaware :: N630AJ KSAN-KPSP

N630AJ :: KSAN-KPSP

FLIGHT INFORMATION

Flight Status: Arrived
Operator: Privately registered:
United States
More flights under this callsign
Pilot: David J. (16724)
Aircraft: Unknown
(PIPA)
More flights by this aircraft type
Origin: KSAN San Diego Intl-Lindbergh
United States
Destination: KPSP Palm Springs Intl
United States
More flights between these airports :: More routes between these airports
Route: +BRDR7 JLI TRM
File this flight plan on PilotEdge
Remarks:
Altitude:
(Current/Filed)
11,000ft
Speed:
(Current/Filed)
200kts
Departed: 18-Sep-17 12:43 PM
Arrived: 18-Sep-17 01:31 PM
Distance/Time
Traveled:
74nm/0:48
Distance/Time
To Go:
Arrived

Flight Plot

Page will automatically refresh every two minutes.


Map Options




Map Legend


Flown Route
Filed Route
Departure Airport
Arrival Airport
Navaid (VOR, NDB)
Fix

Horizontal Profiles

Position Reports

Time Latitude Longitude Heading Altitude Ground
Speed
18-Sep-17 12:30 32.732520 -117.177099 194 20ft 0kts
18-Sep-17 12:31 32.732520 -117.177099 194 20ft 0kts
18-Sep-17 12:32 32.732520 -117.177099 194 20ft 0kts
18-Sep-17 12:33 32.732520 -117.177099 194 20ft 0kts
18-Sep-17 12:34 32.732520 -117.177099 194 20ft 0kts
18-Sep-17 12:35 32.732520 -117.177099 194 20ft 0kts
18-Sep-17 12:36 32.732520 -117.177099 194 20ft 0kts
18-Sep-17 12:37 32.732520 -117.177099 194 20ft 0kts
18-Sep-17 12:38 32.732520 -117.177099 194 20ft 0kts
18-Sep-17 12:39 32.732520 -117.177099 194 20ft 0kts
18-Sep-17 12:40 32.732520 -117.177099 194 20ft 0kts
18-Sep-17 12:41 32.732520 -117.177099 194 20ft 0kts
18-Sep-17 12:42 32.732520 -117.177099 194 20ft 0kts
18-Sep-17 12:43 32.732224 -117.177479 200 20ft 0kts
18-Sep-17 12:44 32.732049 -117.177559 201 20ft 3kts
18-Sep-17 12:45 32.731089 -117.175665 123 20ft 10kts
18-Sep-17 12:46 32.730186 -117.175750 279 20ft 10kts
18-Sep-17 12:47 32.738544 -117.207078 289 685ft 146kts
18-Sep-17 12:48 32.751233 -117.251533 289 2059ft 142kts
18-Sep-17 12:49 32.764001 -117.296122 289 3252ft 145kts
18-Sep-17 12:50 32.747402 -117.324722 150 4331ft 152kts
18-Sep-17 12:51 32.717163 -117.289197 134 5319ft 155kts
18-Sep-17 12:52 32.687169 -117.252551 134 6216ft 159kts
18-Sep-17 12:53 32.656550 -117.214603 134 7054ft 161kts
18-Sep-17 12:54 32.625675 -117.175596 133 7885ft 164kts
18-Sep-17 12:55 32.618458 -117.122489 93 8737ft 167kts
18-Sep-17 12:56 32.615584 -117.067779 93 9547ft 169kts
18-Sep-17 12:57 32.613063 -117.011556 93 10312ft 174kts
18-Sep-17 12:58 32.611074 -116.955566 93 10958ft 155kts
18-Sep-17 12:59 32.609683 -116.896664 93 10996ft 196kts
18-Sep-17 13:00 32.616203 -116.830505 78 10988ft 208kts
18-Sep-17 13:01 32.638599 -116.771451 19 10985ft 210kts
18-Sep-17 13:02 32.693758 -116.748958 15 10989ft 211kts
18-Sep-17 13:03 32.749412 -116.728077 15 10990ft 210kts
18-Sep-17 13:04 32.805095 -116.707619 14 10992ft 210kts
18-Sep-17 13:05 32.860683 -116.687415 14 10995ft 210kts
18-Sep-17 13:06 32.916464 -116.667198 14 10998ft 210kts
18-Sep-17 13:07 32.972319 -116.646879 14 10985ft 211kts
18-Sep-17 13:08 33.028195 -116.626673 14 10983ft 210kts
18-Sep-17 13:09 33.083782 -116.606554 15 10983ft 209kts
18-Sep-17 13:10 33.132933 -116.588664 17 11035ft 206kts
18-Sep-17 13:11 33.169620 -116.559577 34 11137ft 207kts
18-Sep-17 13:12 33.216657 -116.519640 36 11114ft 210kts
18-Sep-17 13:13 33.261413 -116.480886 36 11082ft 211kts
18-Sep-17 13:14 33.308546 -116.439800 36 11047ft 210kts
18-Sep-17 13:15 33.355421 -116.398938 36 11029ft 210kts
18-Sep-17 13:16 33.401819 -116.358461 36 11027ft 209kts
18-Sep-17 13:17 33.447103 -116.318901 36 11026ft 209kts
18-Sep-17 13:18 33.493938 -116.277891 36 11027ft 209kts
18-Sep-17 13:19 33.540344 -116.237150 37 11026ft 209kts
18-Sep-17 13:20 33.588027 -116.195254 37 10564ft 220kts
18-Sep-17 13:21 33.643241 -116.181108 319 9819ft 218kts
18-Sep-17 13:22 33.684919 -116.232963 311 8999ft 218kts
18-Sep-17 13:23 33.725319 -116.286183 292 7996ft 213kts
18-Sep-17 13:24 33.698672 -116.318107 162 6888ft 135kts
18-Sep-17 13:25 33.667981 -116.288371 141 5913ft 140kts
18-Sep-17 13:26 33.654734 -116.253705 43 4895ft 148kts
18-Sep-17 13:27 33.685380 -116.274725 301 3993ft 147kts
18-Sep-17 13:28 33.706313 -116.313909 301 3403ft 143kts
18-Sep-17 13:29 33.728009 -116.355902 301 2517ft 154kts
18-Sep-17 13:30 33.749157 -116.398308 301 1515ft 141kts
18-Sep-17 13:31 33.768805 -116.435702 307 1272ft 124kts
18-Sep-17 13:32 33.788304 -116.464525 314 889ft 89kts
18-Sep-17 13:33 33.807288 -116.485057 326 714ft 90kts
18-Sep-17 13:34 33.825962 -116.501499 326 480ft 61kts
18-Sep-17 13:35 33.830019 -116.504144 113 480ft 8kts
18-Sep-17 13:36 33.826251 -116.500773 141 480ft 16kts
18-Sep-17 13:37 33.823771 -116.497936 50 480ft 0kts
18-Sep-17 13:38 33.823771 -116.497936 50 480ft 0kts
18-Sep-17 13:39 33.823771 -116.497936 50 480ft 0kts
18-Sep-17 13:40 33.823771 -116.497936 50 480ft 0kts
18-Sep-17 13:41 33.823771 -116.497936 50 480ft 0kts

Navigation Log

Ident Type
1. KSAN Airport
2. PGY Navaid
3. BROWS Fix
4. JLI Navaid
5. TRM Navaid
6. KPSP Airport